sensor_id;sensor_type;location;lat;lon;timestamp;temperature;humidity
46732;DHT22;32477;51.474;5.696;2023-09-30T00:00:14;11.40;99.90
46732;DHT22;32477;51.474;5.696;2023-09-30T00:02:40;11.40;99.90
46732;DHT22;32477;51.474;5.696;2023-09-30T00:05:06;11.50;99.90
46732;DHT22;32477;51.474;5.696;2023-09-30T00:07:32;11.50;99.90
46732;DHT22;32477;51.474;5.696;2023-09-30T00:09:58;11.60;99.90
46732;DHT22;32477;51.474;5.696;2023-09-30T00:12:24;11.60;99.90
46732;DHT22;32477;51.474;5.696;2023-09-30T00:14:50;11.60;99.90
46732;DHT22;32477;51.474;5.696;2023-09-30T00:17:15;11.60;99.90
46732;DHT22;32477;51.474;5.696;2023-09-30T00:19:41;11.60;99.90
46732;DHT22;32477;51.474;5.696;2023-09-30T00:22:07;11.70;99.90
46732;DHT22;32477;51.474;5.696;2023-09-30T00:24:33;11.80;99.90
46732;DHT22;32477;51.474;5.696;2023-09-30T00:26:59;12.00;99.90
46732;DHT22;32477;51.474;5.696;2023-09-30T00:29:25;12.00;99.90
46732;DHT22;32477;51.474;5.696;2023-09-30T00:31:52;12.00;99.90
46732;DHT22;32477;51.474;5.696;2023-09-30T00:34:17;12.00;99.90
46732;DHT22;32477;51.474;5.696;2023-09-30T00:36:43;11.90;99.90
46732;DHT22;32477;51.474;5.696;2023-09-30T00:39:09;11.90;99.90
46732;DHT22;32477;51.474;5.696;2023-09-30T00:41:35;11.80;99.90
46732;DHT22;32477;51.474;5.696;2023-09-30T00:44:02;11.90;99.90
46732;DHT22;32477;51.474;5.696;2023-09-30T00:46:33;11.90;99.90
46732;DHT22;32477;51.474;5.696;2023-09-30T00:49:00;11.80;99.90
46732;DHT22;32477;51.474;5.696;2023-09-30T00:51:27;11.80;99.90
46732;DHT22;32477;51.474;5.696;2023-09-30T00:53:54;11.80;99.90
46732;DHT22;32477;51.474;5.696;2023-09-30T00:56:23;11.70;99.90
46732;DHT22;32477;51.474;5.696;2023-09-30T00:58:51;11.70;99.90
46732;DHT22;32477;51.474;5.696;2023-09-30T01:01:19;11.70;99.90
46732;DHT22;32477;51.474;5.696;2023-09-30T01:03:48;11.70;99.90
46732;DHT22;32477;51.474;5.696;2023-09-30T01:06:14;11.70;99.90
46732;DHT22;32477;51.474;5.696;2023-09-30T01:08:40;11.70;99.90
46732;DHT22;32477;51.474;5.696;2023-09-30T01:11:07;11.70;99.90
46732;DHT22;32477;51.474;5.696;2023-09-30T01:13:35;11.70;99.90
46732;DHT22;32477;51.474;5.696;2023-09-30T01:18:30;11.70;99.90
46732;DHT22;32477;51.474;5.696;2023-09-30T01:20:57;11.70;99.90
46732;DHT22;32477;51.474;5.696;2023-09-30T01:23:24;11.60;99.90
46732;DHT22;32477;51.474;5.696;2023-09-30T01:25:49;11.60;99.90
46732;DHT22;32477;51.474;5.696;2023-09-30T01:28:15;11.60;99.90
46732;DHT22;32477;51.474;5.696;2023-09-30T01:30:41;11.60;99.90
46732;DHT22;32477;51.474;5.696;2023-09-30T01:33:10;11.60;99.90
46732;DHT22;32477;51.474;5.696;2023-09-30T01:35:39;11.50;99.90
46732;DHT22;32477;51.474;5.696;2023-09-30T01:38:04;11.50;99.90
46732;DHT22;32477;51.474;5.696;2023-09-30T01:40:30;11.50;99.90
46732;DHT22;32477;51.474;5.696;2023-09-30T01:42:56;11.40;99.90
46732;DHT22;32477;51.474;5.696;2023-09-30T01:45:22;11.30;99.90
46732;DHT22;32477;51.474;5.696;2023-09-30T01:47:48;11.20;99.90
46732;DHT22;32477;51.474;5.696;2023-09-30T01:50:14;11.10;99.90
46732;DHT22;32477;51.474;5.696;2023-09-30T01:52:40;11.30;99.90
46732;DHT22;32477;51.474;5.696;2023-09-30T01:55:06;11.40;99.90
46732;DHT22;32477;51.474;5.696;2023-09-30T01:57:32;11.30;99.90
46732;DHT22;32477;51.474;5.696;2023-09-30T01:59:58;11.20;99.90
46732;DHT22;32477;51.474;5.696;2023-09-30T02:02:24;11.20;99.90
46732;DHT22;32477;51.474;5.696;2023-09-30T02:04:51;11.20;99.90
46732;DHT22;32477;51.474;5.696;2023-09-30T02:07:18;11.20;99.90
46732;DHT22;32477;51.474;5.696;2023-09-30T02:09:44;11.10;99.90
46732;DHT22;32477;51.474;5.696;2023-09-30T02:12:10;11.00;99.90
46732;DHT22;32477;51.474;5.696;2023-09-30T02:14:36;11.00;99.90
46732;DHT22;32477;51.474;5.696;2023-09-30T02:17:04;11.00;99.90
46732;DHT22;32477;51.474;5.696;2023-09-30T02:19:30;11.00;99.90
46732;DHT22;32477;51.474;5.696;2023-09-30T02:21:59;11.10;99.90
46732;DHT22;32477;51.474;5.696;2023-09-30T02:24:25;11.10;99.90
46732;DHT22;32477;51.474;5.696;2023-09-30T02:26:50;11.10;99.90
46732;DHT22;32477;51.474;5.696;2023-09-30T02:29:16;11.10;99.90
46732;DHT22;32477;51.474;5.696;2023-09-30T02:31:42;11.10;99.90
46732;DHT22;32477;51.474;5.696;2023-09-30T02:34:08;11.10;99.90
46732;DHT22;32477;51.474;5.696;2023-09-30T02:36:34;11.10;99.90
46732;DHT22;32477;51.474;5.696;2023-09-30T02:39:05;11.10;99.90
46732;DHT22;32477;51.474;5.696;2023-09-30T02:41:31;11.00;99.90
46732;DHT22;32477;51.474;5.696;2023-09-30T02:43:56;11.00;99.90
46732;DHT22;32477;51.474;5.696;2023-09-30T02:46:22;11.00;99.90
46732;DHT22;32477;51.474;5.696;2023-09-30T02:48:47;11.00;99.90
46732;DHT22;32477;51.474;5.696;2023-09-30T02:51:13;11.00;99.90
46732;DHT22;32477;51.474;5.696;2023-09-30T02:53:40;11.00;99.90
46732;DHT22;32477;51.474;5.696;2023-09-30T02:56:05;11.10;99.90
46732;DHT22;32477;51.474;5.696;2023-09-30T02:58:32;11.10;99.90
46732;DHT22;32477;51.474;5.696;2023-09-30T03:00:57;11.10;99.90
46732;DHT22;32477;51.474;5.696;2023-09-30T03:03:25;11.10;99.90
46732;DHT22;32477;51.474;5.696;2023-09-30T03:05:51;11.00;99.90
46732;DHT22;32477;51.474;5.696;2023-09-30T03:08:16;10.90;99.90
46732;DHT22;32477;51.474;5.696;2023-09-30T03:10:42;10.90;99.90
46732;DHT22;32477;51.474;5.696;2023-09-30T03:13:08;10.90;99.90
46732;DHT22;32477;51.474;5.696;2023-09-30T03:15:35;10.90;99.90
46732;DHT22;32477;51.474;5.696;2023-09-30T03:18:01;11.00;99.90
46732;DHT22;32477;51.474;5.696;2023-09-30T03:20:26;11.00;99.90
46732;DHT22;32477;51.474;5.696;2023-09-30T03:22:52;10.90;99.90
46732;DHT22;32477;51.474;5.696;2023-09-30T03:25:19;10.90;99.90
46732;DHT22;32477;51.474;5.696;2023-09-30T03:27:46;10.90;99.90
46732;DHT22;32477;51.474;5.696;2023-09-30T03:30:13;10.90;99.90
46732;DHT22;32477;51.474;5.696;2023-09-30T03:32:39;11.00;99.90
46732;DHT22;32477;51.474;5.696;2023-09-30T03:35:08;11.00;99.90
46732;DHT22;32477;51.474;5.696;2023-09-30T03:37:39;11.00;99.90
46732;DHT22;32477;51.474;5.696;2023-09-30T03:40:05;11.00;99.90
46732;DHT22;32477;51.474;5.696;2023-09-30T03:42:39;11.00;99.90
46732;DHT22;32477;51.474;5.696;2023-09-30T03:45:05;10.90;99.90
46732;DHT22;32477;51.474;5.696;2023-09-30T03:47:35;10.90;99.90
46732;DHT22;32477;51.474;5.696;2023-09-30T03:50:02;10.80;99.90
46732;DHT22;32477;51.474;5.696;2023-09-30T03:52:29;10.80;99.90
46732;DHT22;32477;51.474;5.696;2023-09-30T03:54:54;10.70;99.90
46732;DHT22;32477;51.474;5.696;2023-09-30T03:57:20;10.70;99.90
46732;DHT22;32477;51.474;5.696;2023-09-30T03:59:46;10.80;99.90
46732;DHT22;32477;51.474;5.696;2023-09-30T04:02:12;10.80;99.90
46732;DHT22;32477;51.474;5.696;2023-09-30T04:04:39;10.70;99.90
46732;DHT22;32477;51.474;5.696;2023-09-30T04:07:04;10.80;99.90
46732;DHT22;32477;51.474;5.696;2023-09-30T04:09:35;10.70;99.90
46732;DHT22;32477;51.474;5.696;2023-09-30T04:12:01;10.80;99.90
46732;DHT22;32477;51.474;5.696;2023-09-30T04:14:27;10.80;99.90
46732;DHT22;32477;51.474;5.696;2023-09-30T04:16:52;10.80;99.90
46732;DHT22;32477;51.474;5.696;2023-09-30T04:19:19;10.80;99.90
46732;DHT22;32477;51.474;5.696;2023-09-30T04:21:45;10.80;99.90
46732;DHT22;32477;51.474;5.696;2023-09-30T04:24:12;10.80;99.90
46732;DHT22;32477;51.474;5.696;2023-09-30T04:26:37;10.80;99.90
46732;DHT22;32477;51.474;5.696;2023-09-30T04:29:03;10.80;99.90
46732;DHT22;32477;51.474;5.696;2023-09-30T04:31:30;10.80;99.90
46732;DHT22;32477;51.474;5.696;2023-09-30T04:33:55;10.80;99.90
46732;DHT22;32477;51.474;5.696;2023-09-30T04:36:23;10.80;99.90
46732;DHT22;32477;51.474;5.696;2023-09-30T04:38:49;10.80;99.90
46732;DHT22;32477;51.474;5.696;2023-09-30T04:41:14;10.70;99.90
46732;DHT22;32477;51.474;5.696;2023-09-30T04:43:41;10.70;99.90
46732;DHT22;32477;51.474;5.696;2023-09-30T04:46:09;10.70;99.90
46732;DHT22;32477;51.474;5.696;2023-09-30T04:48:34;10.60;99.90
46732;DHT22;32477;51.474;5.696;2023-09-30T04:51:00;10.50;99.90
46732;DHT22;32477;51.474;5.696;2023-09-30T04:53:30;10.50;99.90
46732;DHT22;32477;51.474;5.696;2023-09-30T04:55:56;10.40;99.90
46732;DHT22;32477;51.474;5.696;2023-09-30T04:58:21;10.40;99.90
46732;DHT22;32477;51.474;5.696;2023-09-30T05:00:49;10.20;99.90
46732;DHT22;32477;51.474;5.696;2023-09-30T05:03:14;10.20;99.90
46732;DHT22;32477;51.474;5.696;2023-09-30T05:05:40;10.20;99.90
46732;DHT22;32477;51.474;5.696;2023-09-30T05:08:07;10.10;99.90
46732;DHT22;32477;51.474;5.696;2023-09-30T05:10:32;10.00;99.90
46732;DHT22;32477;51.474;5.696;2023-09-30T05:12:59;10.10;99.90
46732;DHT22;32477;51.474;5.696;2023-09-30T05:15:24;10.30;99.90
46732;DHT22;32477;51.474;5.696;2023-09-30T05:17:50;10.40;99.90
46732;DHT22;32477;51.474;5.696;2023-09-30T05:20:17;10.40;99.90
46732;DHT22;32477;51.474;5.696;2023-09-30T05:22:43;10.30;99.90
46732;DHT22;32477;51.474;5.696;2023-09-30T05:25:15;10.40;99.90
46732;DHT22;32477;51.474;5.696;2023-09-30T05:27:44;10.40;99.90
46732;DHT22;32477;51.474;5.696;2023-09-30T05:30:10;10.40;99.90
46732;DHT22;32477;51.474;5.696;2023-09-30T05:32:40;10.50;99.90
46732;DHT22;32477;51.474;5.696;2023-09-30T05:35:06;10.50;99.90
46732;DHT22;32477;51.474;5.696;2023-09-30T05:37:41;10.50;99.90
46732;DHT22;32477;51.474;5.696;2023-09-30T05:40:08;10.50;99.90
46732;DHT22;32477;51.474;5.696;2023-09-30T05:42:53;10.50;99.90
46732;DHT22;32477;51.474;5.696;2023-09-30T05:45:21;10.50;99.90
46732;DHT22;32477;51.474;5.696;2023-09-30T05:47:49;10.40;99.90
46732;DHT22;32477;51.474;5.696;2023-09-30T05:50:15;10.30;99.90
46732;DHT22;32477;51.474;5.696;2023-09-30T05:52:44;10.40;99.90
46732;DHT22;32477;51.474;5.696;2023-09-30T05:55:10;10.40;99.90
46732;DHT22;32477;51.474;5.696;2023-09-30T05:57:36;10.60;99.90
46732;DHT22;32477;51.474;5.696;2023-09-30T06:00:04;10.60;99.90
46732;DHT22;32477;51.474;5.696;2023-09-30T06:02:37;10.60;99.90
46732;DHT22;32477;51.474;5.696;2023-09-30T06:05:02;10.50;99.90
46732;DHT22;32477;51.474;5.696;2023-09-30T06:07:29;10.60;99.90
46732;DHT22;32477;51.474;5.696;2023-09-30T06:09:54;10.60;99.90
46732;DHT22;32477;51.474;5.696;2023-09-30T06:12:20;10.70;99.90
46732;DHT22;32477;51.474;5.696;2023-09-30T06:14:45;10.80;99.90
46732;DHT22;32477;51.474;5.696;2023-09-30T06:17:11;10.90;99.90
46732;DHT22;32477;51.474;5.696;2023-09-30T06:19:36;10.90;99.90
46732;DHT22;32477;51.474;5.696;2023-09-30T06:22:03;11.00;99.90
46732;DHT22;32477;51.474;5.696;2023-09-30T06:24:28;11.10;99.90
46732;DHT22;32477;51.474;5.696;2023-09-30T06:26:54;11.20;99.90
46732;DHT22;32477;51.474;5.696;2023-09-30T06:29:19;11.30;99.90
46732;DHT22;32477;51.474;5.696;2023-09-30T06:31:45;11.30;99.90
46732;DHT22;32477;51.474;5.696;2023-09-30T06:34:10;11.40;99.90
46732;DHT22;32477;51.474;5.696;2023-09-30T06:36:36;11.50;99.90
46732;DHT22;32477;51.474;5.696;2023-09-30T06:39:06;11.60;99.90
46732;DHT22;32477;51.474;5.696;2023-09-30T06:41:31;11.60;99.90
46732;DHT22;32477;51.474;5.696;2023-09-30T06:43:58;11.70;99.90
46732;DHT22;32477;51.474;5.696;2023-09-30T06:46:24;11.80;99.90
46732;DHT22;32477;51.474;5.696;2023-09-30T06:48:50;12.00;99.90
46732;DHT22;32477;51.474;5.696;2023-09-30T06:51:17;12.40;99.90
46732;DHT22;32477;51.474;5.696;2023-09-30T06:53:43;12.70;99.90
46732;DHT22;32477;51.474;5.696;2023-09-30T06:56:09;12.90;99.90
46732;DHT22;32477;51.474;5.696;2023-09-30T06:58:34;13.20;99.90
46732;DHT22;32477;51.474;5.696;2023-09-30T07:01:00;13.40;99.90
46732;DHT22;32477;51.474;5.696;2023-09-30T07:03:26;13.70;99.90
46732;DHT22;32477;51.474;5.696;2023-09-30T07:05:52;13.90;99.90
46732;DHT22;32477;51.474;5.696;2023-09-30T07:08:19;14.20;99.90
46732;DHT22;32477;51.474;5.696;2023-09-30T07:10:46;14.50;99.90
46732;DHT22;32477;51.474;5.696;2023-09-30T07:13:14;14.70;99.90
46732;DHT22;32477;51.474;5.696;2023-09-30T07:15:40;15.00;99.90
46732;DHT22;32477;51.474;5.696;2023-09-30T07:18:06;15.20;99.90
46732;DHT22;32477;51.474;5.696;2023-09-30T07:20:31;15.40;99.90
46732;DHT22;32477;51.474;5.696;2023-09-30T07:22:59;15.50;99.90
46732;DHT22;32477;51.474;5.696;2023-09-30T07:25:26;15.80;99.90
46732;DHT22;32477;51.474;5.696;2023-09-30T07:27:52;16.10;99.90
46732;DHT22;32477;51.474;5.696;2023-09-30T07:30:17;16.30;99.90
46732;DHT22;32477;51.474;5.696;2023-09-30T07:32:43;16.50;99.90
46732;DHT22;32477;51.474;5.696;2023-09-30T07:35:10;16.80;99.90
46732;DHT22;32477;51.474;5.696;2023-09-30T07:37:35;17.20;99.90
46732;DHT22;32477;51.474;5.696;2023-09-30T07:40:01;17.40;99.90
46732;DHT22;32477;51.474;5.696;2023-09-30T07:42:26;17.70;99.90
46732;DHT22;32477;51.474;5.696;2023-09-30T07:44:52;17.90;99.90
46732;DHT22;32477;51.474;5.696;2023-09-30T07:47:18;18.20;99.90
46732;DHT22;32477;51.474;5.696;2023-09-30T07:49:43;18.60;99.90
46732;DHT22;32477;51.474;5.696;2023-09-30T07:52:09;18.70;99.90
46732;DHT22;32477;51.474;5.696;2023-09-30T07:54:36;18.80;99.90
46732;DHT22;32477;51.474;5.696;2023-09-30T07:57:02;18.90;99.90
46732;DHT22;32477;51.474;5.696;2023-09-30T07:59:27;19.10;99.90
46732;DHT22;32477;51.474;5.696;2023-09-30T08:01:53;19.30;99.90
46732;DHT22;32477;51.474;5.696;2023-09-30T08:04:19;19.10;99.90
46732;DHT22;32477;51.474;5.696;2023-09-30T08:06:44;19.40;99.90
46732;DHT22;32477;51.474;5.696;2023-09-30T08:09:13;19.50;99.90
46732;DHT22;32477;51.474;5.696;2023-09-30T08:11:38;19.80;99.90
46732;DHT22;32477;51.474;5.696;2023-09-30T08:14:04;20.00;99.90
46732;DHT22;32477;51.474;5.696;2023-09-30T08:16:38;20.00;99.90
46732;DHT22;32477;51.474;5.696;2023-09-30T08:19:04;19.80;99.90
46732;DHT22;32477;51.474;5.696;2023-09-30T08:21:30;19.90;99.90
46732;DHT22;32477;51.474;5.696;2023-09-30T08:23:57;20.00;99.90
46732;DHT22;32477;51.474;5.696;2023-09-30T08:26:22;20.00;99.90
46732;DHT22;32477;51.474;5.696;2023-09-30T08:28:48;20.20;99.90
46732;DHT22;32477;51.474;5.696;2023-09-30T08:31:14;20.80;99.90
46732;DHT22;32477;51.474;5.696;2023-09-30T08:33:40;21.30;99.90
46732;DHT22;32477;51.474;5.696;2023-09-30T08:36:08;21.70;99.90
46732;DHT22;32477;51.474;5.696;2023-09-30T08:38:36;21.60;99.90
46732;DHT22;32477;51.474;5.696;2023-09-30T08:41:02;21.50;99.90
46732;DHT22;32477;51.474;5.696;2023-09-30T08:43:28;21.30;99.90
46732;DHT22;32477;51.474;5.696;2023-09-30T08:45:56;21.10;99.90
46732;DHT22;32477;51.474;5.696;2023-09-30T08:48:30;21.20;99.90
46732;DHT22;32477;51.474;5.696;2023-09-30T08:50:59;21.20;99.90
46732;DHT22;32477;51.474;5.696;2023-09-30T08:53:25;21.40;99.90
46732;DHT22;32477;51.474;5.696;2023-09-30T08:55:55;21.80;99.90
46732;DHT22;32477;51.474;5.696;2023-09-30T08:58:24;21.90;99.90
46732;DHT22;32477;51.474;5.696;2023-09-30T09:00:50;22.10;99.90
46732;DHT22;32477;51.474;5.696;2023-09-30T09:03:18;22.40;99.90
46732;DHT22;32477;51.474;5.696;2023-09-30T09:05:43;22.50;99.90
46732;DHT22;32477;51.474;5.696;2023-09-30T09:08:09;22.80;99.90
46732;DHT22;32477;51.474;5.696;2023-09-30T09:10:35;22.80;99.90
46732;DHT22;32477;51.474;5.696;2023-09-30T09:13:00;22.50;99.90
46732;DHT22;32477;51.474;5.696;2023-09-30T09:15:28;22.80;99.90
46732;DHT22;32477;51.474;5.696;2023-09-30T09:17:54;22.70;99.90
46732;DHT22;32477;51.474;5.696;2023-09-30T09:20:24;22.80;99.90
46732;DHT22;32477;51.474;5.696;2023-09-30T09:22:55;23.20;99.90
46732;DHT22;32477;51.474;5.696;2023-09-30T09:25:22;23.60;99.90
46732;DHT22;32477;51.474;5.696;2023-09-30T09:27:51;23.50;99.90
46732;DHT22;32477;51.474;5.696;2023-09-30T09:30:24;23.90;99.90
46732;DHT22;32477;51.474;5.696;2023-09-30T09:32:58;24.10;99.90
46732;DHT22;32477;51.474;5.696;2023-09-30T09:35:24;24.20;99.90
46732;DHT22;32477;51.474;5.696;2023-09-30T09:38:01;24.50;99.90
46732;DHT22;32477;51.474;5.696;2023-09-30T09:40:29;25.00;99.90
46732;DHT22;32477;51.474;5.696;2023-09-30T09:42:57;24.70;99.90
46732;DHT22;32477;51.474;5.696;2023-09-30T09:45:24;24.40;99.90
46732;DHT22;32477;51.474;5.696;2023-09-30T09:47:51;23.90;99.90
46732;DHT22;32477;51.474;5.696;2023-09-30T09:50:21;24.20;99.90
46732;DHT22;32477;51.474;5.696;2023-09-30T09:52:51;24.30;99.90
46732;DHT22;32477;51.474;5.696;2023-09-30T09:55:19;24.30;99.90
46732;DHT22;32477;51.474;5.696;2023-09-30T09:57:45;24.40;99.90
46732;DHT22;32477;51.474;5.696;2023-09-30T10:00:22;24.80;99.90
46732;DHT22;32477;51.474;5.696;2023-09-30T10:02:49;25.30;99.90
46732;DHT22;32477;51.474;5.696;2023-09-30T10:05:16;25.90;99.90
46732;DHT22;32477;51.474;5.696;2023-09-30T10:08:12;26.30;99.90
46732;DHT22;32477;51.474;5.696;2023-09-30T10:10:36;26.60;99.90
46732;DHT22;32477;51.474;5.696;2023-09-30T10:13:05;26.30;99.90
46732;DHT22;32477;51.474;5.696;2023-09-30T10:15:35;26.10;99.10
46732;DHT22;32477;51.474;5.696;2023-09-30T10:18:03;25.20;99.70
46732;DHT22;32477;51.474;5.696;2023-09-30T10:20:30;25.30;99.90
46732;DHT22;32477;51.474;5.696;2023-09-30T10:23:22;24.50;99.90
46732;DHT22;32477;51.474;5.696;2023-09-30T10:25:51;23.70;99.90
46732;DHT22;32477;51.474;5.696;2023-09-30T10:28:39;23.60;99.90
46732;DHT22;32477;51.474;5.696;2023-09-30T10:31:18;25.20;99.90
46732;DHT22;32477;51.474;5.696;2023-09-30T10:36:35;26.50;99.10
46732;DHT22;32477;51.474;5.696;2023-09-30T10:39:03;25.50;98.80
46732;DHT22;32477;51.474;5.696;2023-09-30T10:46:55;24.30;99.90
46732;DHT22;32477;51.474;5.696;2023-09-30T10:51:54;25.20;99.60
46732;DHT22;32477;51.474;5.696;2023-09-30T10:54:24;25.60;98.70
46732;DHT22;32477;51.474;5.696;2023-09-30T10:56:51;25.70;98.70
46732;DHT22;32477;51.474;5.696;2023-09-30T10:59:28;26.00;97.20
46732;DHT22;32477;51.474;5.696;2023-09-30T11:01:55;25.40;98.00
46732;DHT22;32477;51.474;5.696;2023-09-30T11:04:21;25.20;98.60
46732;DHT22;32477;51.474;5.696;2023-09-30T11:06:47;25.80;98.70
46732;DHT22;32477;51.474;5.696;2023-09-30T11:09:20;26.50;98.30
46732;DHT22;32477;51.474;5.696;2023-09-30T11:11:51;27.10;96.50
46732;DHT22;32477;51.474;5.696;2023-09-30T11:14:31;26.30;97.00
46732;DHT22;32477;51.474;5.696;2023-09-30T11:16:58;25.60;98.40
46732;DHT22;32477;51.474;5.696;2023-09-30T11:19:25;25.50;98.50
46732;DHT22;32477;51.474;5.696;2023-09-30T11:21:54;26.20;98.30
46732;DHT22;32477;51.474;5.696;2023-09-30T11:24:20;26.40;96.80
46732;DHT22;32477;51.474;5.696;2023-09-30T11:26:46;26.00;97.20
46732;DHT22;32477;51.474;5.696;2023-09-30T11:29:14;26.20;97.90
46732;DHT22;32477;51.474;5.696;2023-09-30T11:31:45;26.80;96.20
46732;DHT22;32477;51.474;5.696;2023-09-30T11:34:12;27.40;94.60
46732;DHT22;32477;51.474;5.696;2023-09-30T11:36:40;27.90;94.70
46732;DHT22;32477;51.474;5.696;2023-09-30T11:39:08;27.60;94.20
46732;DHT22;32477;51.474;5.696;2023-09-30T11:41:42;27.60;94.00
46732;DHT22;32477;51.474;5.696;2023-09-30T11:44:10;27.40;93.70
46732;DHT22;32477;51.474;5.696;2023-09-30T11:46:52;27.30;93.90
46732;DHT22;32477;51.474;5.696;2023-09-30T11:49:40;27.20;94.00
46732;DHT22;32477;51.474;5.696;2023-09-30T11:52:09;26.70;93.10
46732;DHT22;32477;51.474;5.696;2023-09-30T11:54:42;25.70;95.10
46732;DHT22;32477;51.474;5.696;2023-09-30T11:57:15;24.70;95.00
46732;DHT22;32477;51.474;5.696;2023-09-30T11:59:43;25.00;96.00
46732;DHT22;32477;51.474;5.696;2023-09-30T12:02:09;25.70;95.70
46732;DHT22;32477;51.474;5.696;2023-09-30T12:04:35;26.20;94.30
46732;DHT22;32477;51.474;5.696;2023-09-30T12:07:01;25.80;94.00
46732;DHT22;32477;51.474;5.696;2023-09-30T12:09:27;25.70;94.90
46732;DHT22;32477;51.474;5.696;2023-09-30T12:11:54;25.70;95.50
46732;DHT22;32477;51.474;5.696;2023-09-30T12:14:20;25.90;95.30
46732;DHT22;32477;51.474;5.696;2023-09-30T12:16:46;25.80;94.10
46732;DHT22;32477;51.474;5.696;2023-09-30T12:19:13;25.60;94.60
46732;DHT22;32477;51.474;5.696;2023-09-30T12:21:41;26.00;95.10
46732;DHT22;32477;51.474;5.696;2023-09-30T12:24:07;26.60;94.10
46732;DHT22;32477;51.474;5.696;2023-09-30T12:26:35;26.80;92.90
46732;DHT22;32477;51.474;5.696;2023-09-30T12:29:01;27.10;90.60
46732;DHT22;32477;51.474;5.696;2023-09-30T12:31:26;26.50;91.50
46732;DHT22;32477;51.474;5.696;2023-09-30T12:33:52;25.60;92.60
46732;DHT22;32477;51.474;5.696;2023-09-30T12:36:20;24.90;94.20
46732;DHT22;32477;51.474;5.696;2023-09-30T12:38:47;24.30;95.70
46732;DHT22;32477;51.474;5.696;2023-09-30T12:41:13;23.60;96.60
46732;DHT22;32477;51.474;5.696;2023-09-30T12:43:39;23.00;97.20
46732;DHT22;32477;51.474;5.696;2023-09-30T12:46:10;22.70;97.90
46732;DHT22;32477;51.474;5.696;2023-09-30T12:48:35;23.10;97.80
46732;DHT22;32477;51.474;5.696;2023-09-30T12:51:03;23.60;96.70
46732;DHT22;32477;51.474;5.696;2023-09-30T12:53:32;24.00;96.20
46732;DHT22;32477;51.474;5.696;2023-09-30T12:55:58;24.80;95.80
46732;DHT22;32477;51.474;5.696;2023-09-30T12:58:25;25.80;93.90
46732;DHT22;32477;51.474;5.696;2023-09-30T13:00:56;26.20;93.30
46732;DHT22;32477;51.474;5.696;2023-09-30T13:03:22;26.30;93.90
46732;DHT22;32477;51.474;5.696;2023-09-30T13:05:47;26.70;93.00
46732;DHT22;32477;51.474;5.696;2023-09-30T13:08:13;26.40;93.20
46732;DHT22;32477;51.474;5.696;2023-09-30T13:10:38;26.10;92.80
46732;DHT22;32477;51.474;5.696;2023-09-30T13:13:04;25.00;93.50
46732;DHT22;32477;51.474;5.696;2023-09-30T13:15:30;24.50;94.30
46732;DHT22;32477;51.474;5.696;2023-09-30T13:17:56;23.60;95.50
46732;DHT22;32477;51.474;5.696;2023-09-30T13:20:21;22.90;96.60
46732;DHT22;32477;51.474;5.696;2023-09-30T13:22:47;22.70;97.80
46732;DHT22;32477;51.474;5.696;2023-09-30T13:25:13;22.80;97.60
46732;DHT22;32477;51.474;5.696;2023-09-30T13:27:39;22.80;97.90
46732;DHT22;32477;51.474;5.696;2023-09-30T13:30:06;22.50;98.10
46732;DHT22;32477;51.474;5.696;2023-09-30T13:32:33;22.40;98.80
46732;DHT22;32477;51.474;5.696;2023-09-30T13:35:03;22.60;98.60
46732;DHT22;32477;51.474;5.696;2023-09-30T13:37:29;22.70;98.70
46732;DHT22;32477;51.474;5.696;2023-09-30T13:40:01;22.80;98.20
46732;DHT22;32477;51.474;5.696;2023-09-30T13:42:28;22.60;98.40
46732;DHT22;32477;51.474;5.696;2023-09-30T13:44:54;22.30;99.50
46732;DHT22;32477;51.474;5.696;2023-09-30T13:47:23;22.10;99.90
46732;DHT22;32477;51.474;5.696;2023-09-30T13:49:49;21.90;99.90
46732;DHT22;32477;51.474;5.696;2023-09-30T13:52:15;21.70;99.70
46732;DHT22;32477;51.474;5.696;2023-09-30T13:54:40;21.50;99.90
46732;DHT22;32477;51.474;5.696;2023-09-30T13:57:06;21.20;99.90
46732;DHT22;32477;51.474;5.696;2023-09-30T13:59:36;21.00;99.90
46732;DHT22;32477;51.474;5.696;2023-09-30T14:02:02;20.80;99.90
46732;DHT22;32477;51.474;5.696;2023-09-30T14:04:30;20.70;99.90
46732;DHT22;32477;51.474;5.696;2023-09-30T14:07:00;20.70;99.90
46732;DHT22;32477;51.474;5.696;2023-09-30T14:09:28;20.70;99.90
46732;DHT22;32477;51.474;5.696;2023-09-30T14:11:54;20.80;99.90
46732;DHT22;32477;51.474;5.696;2023-09-30T14:14:20;20.90;99.90
46732;DHT22;32477;51.474;5.696;2023-09-30T14:16:45;20.90;99.90
46732;DHT22;32477;51.474;5.696;2023-09-30T14:19:12;20.80;99.90
46732;DHT22;32477;51.474;5.696;2023-09-30T14:21:39;20.80;99.90
46732;DHT22;32477;51.474;5.696;2023-09-30T14:24:05;20.90;99.90
46732;DHT22;32477;51.474;5.696;2023-09-30T14:26:32;20.90;99.90
46732;DHT22;32477;51.474;5.696;2023-09-30T14:28:57;21.00;99.90
46732;DHT22;32477;51.474;5.696;2023-09-30T14:31:23;21.10;99.90
46732;DHT22;32477;51.474;5.696;2023-09-30T14:33:48;21.20;99.90
46732;DHT22;32477;51.474;5.696;2023-09-30T14:36:16;21.30;99.90
46732;DHT22;32477;51.474;5.696;2023-09-30T14:38:42;21.30;99.90
46732;DHT22;32477;51.474;5.696;2023-09-30T14:41:10;21.40;99.90
46732;DHT22;32477;51.474;5.696;2023-09-30T14:43:36;21.20;99.90
46732;DHT22;32477;51.474;5.696;2023-09-30T14:46:02;20.90;99.90
46732;DHT22;32477;51.474;5.696;2023-09-30T14:48:28;20.80;99.90
46732;DHT22;32477;51.474;5.696;2023-09-30T14:50:54;20.70;99.90
46732;DHT22;32477;51.474;5.696;2023-09-30T14:53:20;20.70;99.90
46732;DHT22;32477;51.474;5.696;2023-09-30T14:55:46;20.50;99.90
46732;DHT22;32477;51.474;5.696;2023-09-30T14:58:12;20.30;99.90
46732;DHT22;32477;51.474;5.696;2023-09-30T15:00:37;20.20;99.90
46732;DHT22;32477;51.474;5.696;2023-09-30T15:03:03;20.00;99.90
46732;DHT22;32477;51.474;5.696;2023-09-30T15:05:31;20.00;99.90
46732;DHT22;32477;51.474;5.696;2023-09-30T15:07:56;20.00;99.90
46732;DHT22;32477;51.474;5.696;2023-09-30T15:10:22;19.90;99.90
46732;DHT22;32477;51.474;5.696;2023-09-30T15:12:48;19.90;99.90
46732;DHT22;32477;51.474;5.696;2023-09-30T15:15:13;19.80;99.90
46732;DHT22;32477;51.474;5.696;2023-09-30T15:17:39;19.70;99.90
46732;DHT22;32477;51.474;5.696;2023-09-30T15:20:05;19.60;99.90
46732;DHT22;32477;51.474;5.696;2023-09-30T15:22:32;19.60;99.90
46732;DHT22;32477;51.474;5.696;2023-09-30T15:24:58;19.60;99.90
46732;DHT22;32477;51.474;5.696;2023-09-30T15:27:23;19.50;99.90
46732;DHT22;32477;51.474;5.696;2023-09-30T15:29:50;19.30;99.90
46732;DHT22;32477;51.474;5.696;2023-09-30T15:32:16;19.20;99.90
46732;DHT22;32477;51.474;5.696;2023-09-30T15:34:42;19.10;99.90
46732;DHT22;32477;51.474;5.696;2023-09-30T15:37:08;19.00;99.90
46732;DHT22;32477;51.474;5.696;2023-09-30T15:39:40;18.90;99.90
46732;DHT22;32477;51.474;5.696;2023-09-30T15:42:07;18.80;99.90